createdAt,value
2019-04-22T00:01:41.939Z,8.57
2019-04-22T00:04:17.740Z,7.60
2019-04-22T00:07:12.086Z,7.60
2019-04-22T00:09:45.786Z,7.90
2019-04-22T00:12:22.361Z,7.47
2019-04-22T00:14:40.711Z,7.80
2019-04-22T00:17:25.773Z,7.80
2019-04-22T00:20:03.109Z,8.47
2019-04-22T00:25:01.429Z,7.77
2019-04-22T00:27:33.888Z,8.57
2019-04-22T00:30:07.523Z,8.40
2019-04-22T00:32:39.611Z,9.13
2019-04-22T00:35:06.065Z,8.67
2019-04-22T00:37:48.038Z,8.20
2019-04-22T00:40:17.697Z,8.33
2019-04-22T00:42:47.637Z,8.27
2019-04-22T00:45:23.989Z,8.00
2019-04-22T00:47:48.031Z,8.20
2019-04-22T00:53:04.371Z,8.57
2019-04-22T00:55:31.426Z,8.70
2019-04-22T00:58:08.328Z,9.53
2019-04-22T01:00:39.277Z,8.57
2019-04-22T01:03:11.810Z,10.07
2019-04-22T01:05:43.862Z,8.87
2019-04-22T01:08:23.455Z,10.10
2019-04-22T01:11:13.491Z,8.50
2019-04-22T01:13:38.633Z,8.83
2019-04-22T01:16:13.941Z,9.60
2019-04-22T01:18:42.423Z,9.73
2019-04-22T01:23:40.699Z,10.00
2019-04-22T01:26:15.689Z,7.97
2019-04-22T01:28:46.517Z,8.77
2019-04-22T01:31:10.209Z,8.80
2019-04-22T01:33:44.162Z,8.30
2019-04-22T01:36:30.274Z,8.77
2019-04-22T01:39:02.419Z,9.13
2019-04-22T01:41:42.032Z,8.50
2019-04-22T01:44:31.257Z,9.13
2019-04-22T01:46:47.365Z,8.80
2019-04-22T01:49:15.879Z,9.67
2019-04-22T01:54:22.366Z,9.23
2019-04-22T01:59:18.233Z,8.97
2019-04-22T02:01:55.097Z,10.10
2019-04-22T02:04:32.376Z,8.83
2019-04-22T02:06:57.689Z,10.20
2019-04-22T02:12:07.740Z,9.27
2019-04-22T02:14:39.633Z,10.50
2019-04-22T02:17:14.027Z,8.53
2019-04-22T02:22:07.360Z,9.80
2019-04-22T02:24:46.712Z,9.60
2019-04-22T02:27:23.159Z,8.80
2019-04-22T02:29:50.115Z,9.87
2019-04-22T02:35:03.721Z,10.13
2019-04-22T02:37:23.353Z,10.63
2019-04-22T02:40:03.497Z,9.63
2019-04-22T02:42:16.693Z,10.60
2019-04-22T02:44:58.086Z,9.83
2019-04-22T02:47:49.912Z,10.77
2019-04-22T02:50:05.128Z,12.00
2019-04-22T02:52:39.426Z,10.50
2019-04-22T02:55:17.138Z,10.00
2019-04-22T02:57:39.715Z,9.93
2019-04-22T03:00:21.483Z,9.77
2019-04-22T03:02:59.211Z,9.73
2019-04-22T03:05:27.442Z,9.47
2019-04-22T03:08:04.525Z,9.53
2019-04-22T03:10:54.714Z,9.70
2019-04-22T03:13:21.359Z,9.40
2019-04-22T03:15:53.167Z,10.07
2019-04-22T03:18:35.963Z,9.43
2019-04-22T03:23:40.415Z,9.87
2019-04-22T03:28:44.403Z,11.43
2019-04-22T03:31:20.304Z,10.63
2019-04-22T03:34:22.527Z,12.10
2019-04-22T03:39:06.718Z,10.43
2019-04-22T03:41:39.295Z,9.80
2019-04-22T03:44:07.808Z,13.13
2019-04-22T03:46:39.533Z,10.80
2019-04-22T03:49:10.874Z,9.07
2019-04-22T03:51:42.916Z,11.97
2019-04-22T03:57:10.469Z,10.10
2019-04-22T04:01:55.323Z,9.97
2019-04-22T04:04:18.649Z,9.73
2019-04-22T04:06:52.479Z,10.13
2019-04-22T04:09:16.856Z,9.43
2019-04-22T04:19:29.446Z,12.83
2019-04-22T04:21:48.491Z,9.40
2019-04-22T04:27:11.308Z,10.27
2019-04-22T04:29:49.196Z,10.03
2019-04-22T04:32:27.410Z,9.13
2019-04-22T04:35:06.992Z,10.07
2019-04-22T04:37:19.994Z,10.27
2019-04-22T04:39:43.332Z,10.20
2019-04-22T04:45:08.140Z,10.13
2019-04-22T04:47:25.820Z,11.00
2019-04-22T04:52:27.687Z,13.60
2019-04-22T04:58:03.486Z,9.37
2019-04-22T05:02:52.168Z,11.10
2019-04-22T05:07:48.638Z,10.00
2019-04-22T05:12:57.279Z,10.93
2019-04-22T05:15:24.892Z,11.23
2019-04-22T05:17:57.803Z,10.87
2019-04-22T05:20:42.284Z,11.00
2019-04-22T05:23:22.124Z,11.30
2019-04-22T05:25:26.843Z,10.73
2019-04-22T05:28:04.015Z,10.57
2019-04-22T05:30:34.236Z,11.10
2019-04-22T05:33:02.904Z,11.43
2019-04-22T05:35:37.932Z,10.97
2019-04-22T05:38:14.432Z,12.63
2019-04-22T05:40:34.407Z,12.80
2019-04-22T05:43:14.054Z,10.20
2019-04-22T05:45:45.255Z,11.70
2019-04-22T05:48:18.971Z,11.77
2019-04-22T05:50:53.970Z,11.13
2019-04-22T05:53:19.843Z,11.23
2019-04-22T05:55:58.523Z,9.73
2019-04-22T05:58:22.564Z,11.00
2019-04-22T06:03:49.352Z,11.37
2019-04-22T06:06:15.036Z,9.60
2019-04-22T06:08:48.795Z,11.13
2019-04-22T06:11:22.946Z,10.20
2019-04-22T06:13:46.642Z,10.60
2019-04-22T06:16:29.121Z,12.77
2019-04-22T06:19:03.171Z,10.70
2019-04-22T06:21:34.958Z,11.37
2019-04-22T06:24:13.936Z,12.90
2019-04-22T06:26:45.833Z,12.70
2019-04-22T06:29:20.988Z,13.20
2019-04-22T06:32:03.965Z,11.83
2019-04-22T06:34:20.897Z,12.73
2019-04-22T06:39:23.000Z,11.70
2019-04-22T06:41:50.572Z,14.27
2019-04-22T06:44:24.543Z,10.67
2019-04-22T06:46:52.502Z,11.00
2019-04-22T06:52:05.722Z,10.50
2019-04-22T06:54:35.645Z,11.30
2019-04-22T06:59:39.419Z,12.53
2019-04-22T07:02:14.851Z,9.50
2019-04-22T07:04:43.035Z,9.90
2019-04-22T07:07:12.713Z,9.53
2019-04-22T07:09:49.716Z,9.37
2019-04-22T07:12:20.705Z,9.53
2019-04-22T07:14:48.428Z,9.03
2019-04-22T07:17:21.882Z,9.13
2019-04-22T07:19:51.234Z,9.70
2019-04-22T07:22:27.937Z,8.10
2019-04-22T07:24:59.061Z,8.17
2019-04-22T07:27:28.733Z,8.77
2019-04-22T07:30:09.339Z,7.93
2019-04-22T07:35:09.830Z,8.33
2019-04-22T07:37:41.869Z,11.00
2019-04-22T07:40:13.442Z,7.00
2019-04-22T07:42:45.165Z,8.37
2019-04-22T07:45:15.509Z,9.63
2019-04-22T07:47:44.659Z,6.87
2019-04-22T07:50:31.215Z,10.07
2019-04-22T07:52:46.776Z,6.27
2019-04-22T07:55:17.813Z,9.00
2019-04-22T07:58:00.763Z,8.23
2019-04-22T08:00:36.954Z,9.73
2019-04-22T08:03:06.648Z,6.87
2019-04-22T08:05:47.687Z,7.30
2019-04-22T08:08:13.169Z,6.67
2019-04-22T08:10:43.314Z,5.93
2019-04-22T08:13:11.424Z,5.93
2019-04-22T08:15:45.457Z,6.60
2019-04-22T08:18:17.401Z,6.13
2019-04-22T08:20:54.089Z,7.17
2019-04-22T08:23:28.811Z,5.73
2019-04-22T08:25:58.878Z,5.67
2019-04-22T08:28:31.970Z,5.87
2019-04-22T08:31:04.803Z,8.10
2019-04-22T08:36:18.084Z,6.37
2019-04-22T08:38:39.537Z,5.20
2019-04-22T08:41:32.122Z,5.30
2019-04-22T08:48:54.227Z,4.77
2019-04-22T08:51:24.983Z,6.13
2019-04-22T08:54:13.591Z,6.60
2019-04-22T08:57:00.101Z,5.63
2019-04-22T08:59:14.996Z,7.10
2019-04-22T09:01:49.174Z,6.03
2019-04-22T09:04:16.206Z,7.40
2019-04-22T09:07:12.455Z,6.43
2019-04-22T09:09:36.131Z,7.63
2019-04-22T09:12:01.335Z,4.43
2019-04-22T09:14:37.924Z,5.47
2019-04-22T09:17:11.408Z,6.13
2019-04-22T09:19:38.558Z,7.10
2019-04-22T09:22:12.258Z,5.07
2019-04-22T09:24:57.308Z,5.60
2019-04-22T09:27:39.993Z,5.47
2019-04-22T09:30:10.494Z,4.83
2019-04-22T09:35:09.673Z,6.13
2019-04-22T09:37:48.619Z,5.03
2019-04-22T09:40:18.400Z,4.40
2019-04-22T09:42:50.458Z,4.57
2019-04-22T09:45:15.541Z,5.90
2019-04-22T09:47:55.356Z,5.83
2019-04-22T09:50:33.564Z,5.93
2019-04-22T09:55:28.393Z,3.90
2019-04-22T09:58:03.195Z,6.00
2019-04-22T10:00:46.301Z,6.27
2019-04-22T10:05:47.775Z,5.70
2019-04-22T10:08:24.500Z,7.53
2019-04-22T10:11:04.725Z,4.03
2019-04-22T10:13:42.119Z,4.30
2019-04-22T10:16:10.417Z,5.53
2019-04-22T10:21:40.047Z,5.60
2019-04-22T10:24:09.078Z,3.73
2019-04-22T10:26:39.844Z,8.10
2019-04-22T10:29:15.702Z,4.20
2019-04-22T10:31:49.549Z,4.50
2019-04-22T10:34:05.898Z,6.23
2019-04-22T10:36:23.516Z,5.17
2019-04-22T10:38:54.666Z,6.80
2019-04-22T10:41:26.301Z,5.53
2019-04-22T10:43:57.166Z,8.10
2019-04-22T10:46:28.336Z,4.53
2019-04-22T10:49:00.012Z,5.00
2019-04-22T10:51:30.785Z,6.53
2019-04-22T10:54:01.868Z,5.17
2019-04-22T10:56:32.692Z,7.20
2019-04-22T10:59:04.717Z,4.53
2019-04-22T11:01:38.383Z,5.40
2019-04-22T11:04:11.094Z,5.70
2019-04-22T11:06:50.708Z,5.97
2019-04-22T11:09:14.233Z,4.80
2019-04-22T11:11:54.500Z,6.27
2019-04-22T11:14:16.947Z,5.23
2019-04-22T11:16:47.698Z,7.53
2019-04-22T11:19:19.402Z,6.77
2019-04-22T11:21:59.913Z,5.53
2019-04-22T11:24:23.026Z,6.10
2019-04-22T11:26:54.929Z,4.47
2019-04-22T11:29:27.827Z,5.13
2019-04-22T11:31:58.367Z,5.43
2019-04-22T11:34:29.072Z,6.00
2019-04-22T11:37:00.918Z,5.70
2019-04-22T11:39:34.879Z,5.83
2019-04-22T11:42:04.462Z,4.40
2019-04-22T11:44:35.335Z,5.77
2019-04-22T11:47:07.484Z,7.83
2019-04-22T11:49:39.616Z,8.37
2019-04-22T11:52:12.850Z,8.27
2019-04-22T11:54:43.236Z,4.33
2019-04-22T11:57:14.943Z,7.07
2019-04-22T11:59:46.885Z,7.20
2019-04-22T12:02:21.984Z,6.30
2019-04-22T12:04:53.921Z,7.80
2019-04-22T12:07:24.471Z,6.73
2019-04-22T12:09:55.611Z,6.77
2019-04-22T12:12:27.837Z,9.40
2019-04-22T12:15:16.917Z,4.37
2019-04-22T12:17:48.642Z,6.60
2019-04-22T12:20:21.298Z,5.70
2019-04-22T12:22:51.627Z,4.30
2019-04-22T12:25:48.724Z,6.33
2019-04-22T12:28:13.163Z,4.27
2019-04-22T12:30:43.665Z,6.47
2019-04-22T12:33:14.947Z,8.47
2019-04-22T12:35:46.421Z,4.90
2019-04-22T12:38:18.459Z,5.37
2019-04-22T12:40:56.485Z,4.90
2019-04-22T12:43:24.603Z,6.63
2019-04-22T12:45:54.608Z,5.93
2019-04-22T12:48:27.462Z,4.80
2019-04-22T12:50:58.931Z,6.77
2019-04-22T12:53:29.957Z,4.83
2019-04-22T12:56:01.285Z,3.87
2019-04-22T12:58:31.795Z,5.57
2019-04-22T13:01:03.274Z,4.50
2019-04-22T13:03:34.127Z,4.30
2019-04-22T13:06:05.903Z,5.43
2019-04-22T13:08:37.913Z,4.73
2019-04-22T13:11:13.949Z,5.43
2019-04-22T13:13:40.923Z,9.33
2019-04-22T13:16:13.230Z,4.67
2019-04-22T13:18:50.180Z,3.80
2019-04-22T13:21:15.473Z,3.47
2019-04-22T13:23:46.625Z,6.53
2019-04-22T13:26:17.179Z,3.30
2019-04-22T13:28:47.478Z,3.33
2019-04-22T13:31:20.706Z,3.77
2019-04-22T13:33:52.762Z,5.43
2019-04-22T13:36:24.005Z,6.90
2019-04-22T13:38:54.915Z,5.33
2019-04-22T13:41:33.918Z,3.47
2019-04-22T13:43:58.066Z,4.03
2019-04-22T13:46:31.263Z,3.90
2019-04-22T13:49:38.163Z,4.37
2019-04-22T13:52:02.684Z,3.77
2019-04-22T13:56:51.861Z,6.47
2019-04-22T13:59:22.239Z,6.30
2019-04-22T14:02:01.655Z,4.23
2019-04-22T14:04:35.014Z,3.37
2019-04-22T14:07:05.282Z,4.67
2019-04-22T14:09:35.932Z,4.07
2019-04-22T14:12:08.241Z,3.37
2019-04-22T14:14:40.716Z,4.07
2019-04-22T14:17:11.344Z,3.43
2019-04-22T14:19:42.382Z,4.77
2019-04-22T14:22:13.807Z,6.10
2019-04-22T14:24:50.524Z,5.67
2019-04-22T14:27:31.783Z,4.17
2019-04-22T14:29:53.608Z,4.77
2019-04-22T14:32:28.021Z,4.93
2019-04-22T14:34:57.349Z,4.87
2019-04-22T14:37:27.866Z,6.90
2019-04-22T14:39:58.135Z,4.27
2019-04-22T14:42:53.027Z,4.40
2019-04-22T14:45:35.793Z,3.40
2019-04-22T14:48:01.436Z,5.37
2019-04-22T14:50:32.839Z,4.40
2019-04-22T14:52:58.189Z,5.37
2019-04-22T14:55:17.480Z,3.97
2019-04-22T14:57:43.815Z,3.30
2019-04-22T15:00:15.845Z,3.53
2019-04-22T15:02:47.824Z,3.97
2019-04-22T15:05:18.644Z,3.47
2019-04-22T15:07:49.900Z,5.23
2019-04-22T15:10:22.299Z,2.77
2019-04-22T15:12:57.367Z,7.13
2019-04-22T15:15:42.073Z,4.10
2019-04-22T15:18:33.568Z,5.47
2019-04-22T15:21:07.025Z,4.93
2019-04-22T15:23:38.491Z,7.73
2019-04-22T15:26:08.931Z,6.10
2019-04-22T15:28:39.834Z,3.53
2019-04-22T15:31:11.185Z,5.20
2019-04-22T15:34:02.621Z,5.17
2019-04-22T15:36:33.146Z,5.43
2019-04-22T15:39:05.053Z,3.57
2019-04-22T15:41:37.040Z,5.33
2019-04-22T15:44:08.014Z,4.50
2019-04-22T15:46:51.002Z,3.70
2019-04-22T15:49:22.340Z,3.73
2019-04-22T15:51:56.712Z,5.07
2019-04-22T15:54:25.595Z,3.13
2019-04-22T15:56:56.866Z,4.83
2019-04-22T15:59:45.961Z,3.60
2019-04-22T16:02:02.725Z,2.97
2019-04-22T16:04:34.792Z,4.87
2019-04-22T16:07:05.295Z,4.13
2019-04-22T16:09:36.702Z,4.47
2019-04-22T16:12:16.162Z,3.23
2019-04-22T16:14:43.713Z,3.10
2019-04-22T16:17:13.059Z,6.03
2019-04-22T16:19:43.545Z,3.37
2019-04-22T16:22:18.693Z,5.87
2019-04-22T16:25:11.305Z,3.83
2019-04-22T16:27:42.930Z,3.17
2019-04-22T16:30:15.129Z,3.57
2019-04-22T16:32:45.565Z,4.37
2019-04-22T16:35:16.788Z,3.77
2019-04-22T16:37:48.567Z,6.47
2019-04-22T16:40:18.946Z,3.63
2019-04-22T16:42:58.182Z,5.97
2019-04-22T16:45:22.415Z,3.97
2019-04-22T16:47:53.706Z,5.40
2019-04-22T16:50:25.164Z,5.10
2019-04-22T16:52:55.979Z,3.23
2019-04-22T16:55:26.612Z,4.53
2019-04-22T16:58:01.091Z,6.60
2019-04-22T17:00:31.620Z,3.50
2019-04-22T17:03:20.662Z,7.00
2019-04-22T17:06:09.889Z,3.03
2019-04-22T17:08:40.434Z,4.77
2019-04-22T17:11:11.752Z,4.33
2019-04-22T17:13:44.079Z,3.80
2019-04-22T17:16:34.522Z,3.70
2019-04-22T17:19:11.503Z,4.27
2019-04-22T17:21:41.876Z,3.40
2019-04-22T17:24:12.248Z,4.23
2019-04-22T17:27:06.392Z,3.67
2019-04-22T17:29:38.778Z,6.87
2019-04-22T17:32:14.068Z,4.97
2019-04-22T17:34:41.379Z,4.73
2019-04-22T17:37:19.212Z,4.00
2019-04-22T17:39:57.344Z,4.40
2019-04-22T17:42:35.572Z,4.17
2019-04-22T17:45:26.000Z,4.70
2019-04-22T17:48:12.696Z,4.40
2019-04-22T17:50:54.908Z,3.83
2019-04-22T17:53:43.152Z,3.33
2019-04-22T17:56:00.575Z,4.60
2019-04-22T17:58:25.882Z,5.90
2019-04-22T18:01:09.237Z,3.17
2019-04-22T18:03:29.118Z,3.83
2019-04-22T18:05:57.416Z,4.50
2019-04-22T18:08:43.739Z,4.80
2019-04-22T18:11:24.422Z,7.47
2019-04-22T18:13:51.987Z,3.50
2019-04-22T18:16:18.115Z,4.20
2019-04-22T18:18:52.897Z,3.30
2019-04-22T18:21:25.169Z,3.87
2019-04-22T18:23:44.286Z,3.53
2019-04-22T18:26:24.328Z,4.03
2019-04-22T18:29:02.146Z,5.97
2019-04-22T18:31:28.643Z,4.37
2019-04-22T18:34:00.670Z,6.70
2019-04-22T18:36:33.337Z,5.50
2019-04-22T18:39:10.106Z,3.77
2019-04-22T18:41:39.522Z,3.20
2019-04-22T18:44:17.973Z,5.17
2019-04-22T18:46:44.531Z,4.17
2019-04-22T18:49:18.557Z,3.93
2019-04-22T18:52:01.092Z,5.17
2019-04-22T18:54:45.687Z,5.37
2019-04-22T18:57:22.171Z,3.00
2019-04-22T18:59:42.899Z,3.03
2019-04-22T19:02:14.214Z,3.47
2019-04-22T19:04:53.884Z,4.13
2019-04-22T19:07:44.293Z,3.63
2019-04-22T19:10:17.260Z,6.00
2019-04-22T19:12:51.230Z,3.60
2019-04-22T19:15:16.351Z,3.07
2019-04-22T19:17:55.113Z,5.60
2019-04-22T19:20:23.817Z,6.93
2019-04-22T19:22:57.524Z,3.87
2019-04-22T19:25:23.510Z,4.73
2019-04-22T19:28:14.415Z,3.17
2019-04-22T19:30:44.616Z,4.27
2019-04-22T19:33:19.085Z,3.30
2019-04-22T19:35:44.336Z,3.60
2019-04-22T19:38:16.355Z,3.10
2019-04-22T19:41:08.674Z,6.70
2019-04-22T19:43:38.945Z,4.70
2019-04-22T19:46:08.134Z,3.33
2019-04-22T19:48:46.513Z,5.57
2019-04-22T19:51:15.844Z,5.73
2019-04-22T19:53:46.652Z,3.10
2019-04-22T19:56:14.387Z,2.73
2019-04-22T19:58:41.360Z,3.00
2019-04-22T20:01:41.585Z,3.57
2019-04-22T20:07:13.026Z,3.27
2019-04-22T20:09:55.369Z,4.27
2019-04-22T20:12:23.497Z,4.23
2019-04-22T20:15:02.306Z,8.90
2019-04-22T20:18:19.104Z,6.40
2019-04-22T20:20:46.558Z,3.77
2019-04-22T20:23:10.215Z,3.77
2019-04-22T20:25:40.819Z,4.50
2019-04-22T20:28:19.371Z,5.05
2019-04-22T20:32:23.479Z,3.97
2019-04-22T20:34:10.745Z,3.47
2019-04-22T20:37:25.285Z,3.57
2019-04-22T20:40:04.060Z,5.27
2019-04-22T20:42:45.414Z,4.00
2019-04-22T20:45:29.105Z,3.37
2019-04-22T20:48:07.886Z,5.00
2019-04-22T20:54:05.888Z,7.30
2019-04-22T20:56:51.585Z,4.20
2019-04-22T21:03:18.345Z,3.77
2019-04-22T21:06:06.893Z,4.30
2019-04-22T21:08:46.867Z,4.33
2019-04-22T21:11:34.698Z,5.43
2019-04-22T21:14:12.070Z,4.53
2019-04-22T21:16:53.242Z,7.13
2019-04-22T21:19:36.495Z,7.50
2019-04-22T21:22:18.130Z,4.10
2019-04-22T21:24:43.492Z,4.10
2019-04-22T21:27:28.397Z,6.23
2019-04-22T21:30:14.407Z,4.43
2019-04-22T21:33:03.603Z,5.17
2019-04-22T21:36:00.615Z,3.10
2019-04-22T21:38:50.948Z,3.23
2019-04-22T21:41:24.962Z,6.50
2019-04-22T21:44:05.774Z,4.87
2019-04-22T21:46:42.426Z,4.67
2019-04-22T21:53:17.790Z,4.53
2019-04-22T21:56:11.173Z,5.30
2019-04-22T21:59:10.690Z,4.43
2019-04-22T22:02:00.613Z,6.87
2019-04-22T22:04:39.725Z,4.77
2019-04-22T22:07:13.255Z,3.27
2019-04-22T22:09:53.754Z,6.67
2019-04-22T22:13:06.302Z,3.37
2019-04-22T22:16:00.152Z,3.80
2019-04-22T22:18:49.365Z,6.20
2019-04-22T22:24:16.373Z,4.13
2019-04-22T22:27:01.908Z,3.80
2019-04-22T22:30:06.659Z,7.40
2019-04-22T22:32:32.069Z,3.80
2019-04-22T22:35:10.040Z,3.67
2019-04-22T22:37:50.196Z,7.93
2019-04-22T22:40:21.967Z,7.50
2019-04-22T22:42:52.968Z,8.13
2019-04-22T22:45:47.061Z,5.70
2019-04-22T22:48:48.133Z,4.93
2019-04-22T22:51:34.416Z,5.43
2019-04-22T22:54:21.567Z,7.13
2019-04-22T22:56:56.185Z,2.70
2019-04-22T22:59:33.248Z,8.77
2019-04-22T23:02:15.703Z,4.17
2019-04-22T23:05:06.069Z,4.33
2019-04-22T23:07:55.523Z,4.73
2019-04-22T23:10:33.948Z,7.63
2019-04-22T23:13:22.201Z,4.87
2019-04-22T23:15:54.992Z,3.20
2019-04-22T23:18:23.841Z,3.43
2019-04-22T23:20:57.257Z,2.83
2019-04-22T23:27:40.173Z,2.30
2019-04-22T23:30:39.055Z,5.03
2019-04-22T23:33:42.300Z,4.77
2019-04-22T23:36:59.025Z,3.87
2019-04-22T23:39:48.412Z,4.43
2019-04-22T23:42:27.218Z,2.60
2019-04-22T23:45:09.314Z,3.30
2019-04-22T23:47:45.928Z,5.43
2019-04-22T23:50:38.885Z,4.77
2019-04-22T23:53:42.754Z,4.43
2019-04-22T23:56:17.478Z,5.13
2019-04-22T23:59:14.715Z,2.37
